createdAt,value
2019-05-06T00:00:27.075Z,99.90
2019-05-06T00:02:56.778Z,99.90
2019-05-06T00:05:26.481Z,99.90
2019-05-06T00:07:56.209Z,99.90
2019-05-06T00:10:34.760Z,99.90
2019-05-06T00:13:04.812Z,99.90
2019-05-06T00:15:34.687Z,99.90
2019-05-06T00:18:04.845Z,99.90
2019-05-06T00:20:35.448Z,99.90
2019-05-06T00:23:24.818Z,99.90
2019-05-06T00:25:58.430Z,99.90
2019-05-06T00:28:29.740Z,99.90
2019-05-06T00:31:10.339Z,99.90
2019-05-06T00:33:34.103Z,99.90
2019-05-06T00:36:04.671Z,99.90
2019-05-06T00:38:35.069Z,99.90
2019-05-06T00:41:06.319Z,99.90
2019-05-06T00:43:36.062Z,99.90
2019-05-06T00:46:05.891Z,99.90
2019-05-06T00:48:35.499Z,99.90
2019-05-06T00:51:05.249Z,99.90
2019-05-06T00:53:36.523Z,99.90
2019-05-06T00:56:06.457Z,99.90
2019-05-06T00:58:36.082Z,99.90
2019-05-06T01:01:06.053Z,99.90
2019-05-06T01:03:35.714Z,99.90
2019-05-06T01:06:05.852Z,99.90
2019-05-06T01:08:35.718Z,99.90
2019-05-06T01:11:07.159Z,99.90
2019-05-06T01:13:43.694Z,99.90
2019-05-06T01:16:15.760Z,99.90
2019-05-06T01:18:45.491Z,99.90
2019-05-06T01:21:15.201Z,99.90
2019-05-06T01:23:46.081Z,99.90
2019-05-06T01:26:16.707Z,99.90
2019-05-06T01:28:46.433Z,99.90
2019-05-06T01:31:16.327Z,99.90
2019-05-06T01:33:46.156Z,99.90
2019-05-06T01:36:16.002Z,99.90
2019-05-06T01:38:53.547Z,99.90
2019-05-06T01:41:28.749Z,99.90
2019-05-06T01:43:58.664Z,99.90
2019-05-06T01:46:28.252Z,99.90
2019-05-06T01:48:58.124Z,99.90
2019-05-06T01:51:27.932Z,99.90
2019-05-06T01:53:57.727Z,99.90
2019-05-06T01:56:27.392Z,99.90
2019-05-06T01:58:57.002Z,99.90
2019-05-06T02:01:26.663Z,99.90
2019-05-06T02:03:56.503Z,99.90
2019-05-06T02:06:26.516Z,99.90
2019-05-06T02:08:56.161Z,99.90
2019-05-06T02:11:25.943Z,99.90
2019-05-06T02:13:55.591Z,99.90
2019-05-06T02:16:25.372Z,99.90
2019-05-06T02:18:55.058Z,99.90
2019-05-06T02:21:27.648Z,99.90
2019-05-06T02:23:59.050Z,99.90
2019-05-06T02:26:28.691Z,99.90
2019-05-06T02:29:00.026Z,99.90
2019-05-06T02:31:46.762Z,99.90
2019-05-06T02:34:26.973Z,99.90
2019-05-06T02:37:06.290Z,99.90
2019-05-06T02:39:35.529Z,99.90
2019-05-06T02:42:07.400Z,99.90
2019-05-06T02:44:37.030Z,99.90
2019-05-06T02:47:17.190Z,99.90
2019-05-06T02:49:48.621Z,99.90
2019-05-06T02:52:18.257Z,99.90
2019-05-06T02:54:48.064Z,99.90
2019-05-06T02:57:17.828Z,99.90
2019-05-06T02:59:47.730Z,99.90
2019-05-06T03:02:35.680Z,99.90
2019-05-06T03:04:48.660Z,99.90
2019-05-06T03:07:18.237Z,99.90
2019-05-06T03:09:47.849Z,99.90
2019-05-06T03:12:17.509Z,99.90
2019-05-06T03:14:47.113Z,99.90
2019-05-06T03:17:16.888Z,99.90
2019-05-06T03:19:48.292Z,99.90
2019-05-06T03:22:24.063Z,99.90
2019-05-06T03:24:55.974Z,99.90
2019-05-06T03:27:26.008Z,99.90
2019-05-06T03:29:55.721Z,99.90
2019-05-06T03:32:30.791Z,99.90
2019-05-06T03:35:22.958Z,99.90
2019-05-06T03:37:27.977Z,99.90
2019-05-06T03:39:57.675Z,99.90
2019-05-06T03:42:27.348Z,99.90
2019-05-06T03:44:58.732Z,99.90
2019-05-06T03:47:30.124Z,99.90
2019-05-06T03:49:59.711Z,99.90
2019-05-06T03:52:33.879Z,99.90
2019-05-06T03:55:04.318Z,99.90
2019-05-06T03:57:35.941Z,99.90
2019-05-06T04:00:15.543Z,99.90
2019-05-06T04:02:43.521Z,99.90
2019-05-06T04:05:13.692Z,99.90
2019-05-06T04:07:45.915Z,99.90
2019-05-06T04:10:16.487Z,99.90
2019-05-06T04:12:46.071Z,99.90
2019-05-06T04:15:16.251Z,99.90
2019-05-06T04:17:47.697Z,99.90
2019-05-06T04:20:25.106Z,99.90
2019-05-06T04:22:59.371Z,99.90
2019-05-06T04:25:38.335Z,99.90
2019-05-06T04:28:12.681Z,99.90
2019-05-06T04:30:42.847Z,99.90
2019-05-06T04:33:17.279Z,99.90
2019-05-06T04:35:44.764Z,99.90
2019-05-06T04:38:14.468Z,99.90
2019-05-06T04:40:44.367Z,99.90
2019-05-06T04:43:14.025Z,99.90
2019-05-06T04:45:43.698Z,99.90
2019-05-06T04:48:14.639Z,99.90
2019-05-06T04:50:44.777Z,99.90
2019-05-06T04:53:14.512Z,99.90
2019-05-06T04:55:44.593Z,99.90
2019-05-06T04:58:14.519Z,99.90
2019-05-06T05:00:44.814Z,99.90
2019-05-06T05:03:14.633Z,99.90
2019-05-06T05:05:45.069Z,99.90
2019-05-06T05:08:15.362Z,99.90
2019-05-06T05:10:46.755Z,99.90
2019-05-06T05:13:23.161Z,99.90
2019-05-06T05:16:09.693Z,99.90
2019-05-06T05:18:42.490Z,99.90
2019-05-06T05:21:12.301Z,99.90
2019-05-06T05:23:42.842Z,99.90
2019-05-06T05:26:12.535Z,99.90
2019-05-06T05:28:42.977Z,99.90
2019-05-06T05:31:12.776Z,99.90
2019-05-06T05:33:42.610Z,99.90
2019-05-06T05:36:12.551Z,99.90
2019-05-06T05:38:43.417Z,99.90
2019-05-06T05:41:13.276Z,99.90
2019-05-06T05:43:48.496Z,99.90
2019-05-06T05:46:18.106Z,99.90
2019-05-06T05:48:58.534Z,99.90
2019-05-06T05:51:28.235Z,99.90
2019-05-06T05:53:57.847Z,99.90
2019-05-06T05:56:27.605Z,99.90
2019-05-06T05:58:57.324Z,99.90
2019-05-06T06:01:27.106Z,99.90
2019-05-06T06:03:57.016Z,99.90
2019-05-06T06:06:26.984Z,99.90
2019-05-06T06:08:56.750Z,99.90
2019-05-06T06:11:43.874Z,99.90
2019-05-06T06:14:30.087Z,99.90
2019-05-06T06:17:12.957Z,99.90
2019-05-06T06:19:45.061Z,99.90
2019-05-06T06:22:16.351Z,99.90
2019-05-06T06:24:46.179Z,99.90
2019-05-06T06:27:15.881Z,99.90
2019-05-06T06:29:47.365Z,99.90
2019-05-06T06:32:18.675Z,99.90
2019-05-06T06:35:07.561Z,99.90
2019-05-06T06:37:42.643Z,99.90
2019-05-06T06:40:14.639Z,99.90
2019-05-06T06:42:46.031Z,99.90
2019-05-06T06:45:16.213Z,99.90
2019-05-06T06:47:46.394Z,99.90
2019-05-06T06:50:16.372Z,99.90
2019-05-06T06:52:46.537Z,99.90
2019-05-06T06:55:18.469Z,99.90
2019-05-06T06:57:55.315Z,99.90
2019-05-06T07:00:36.858Z,99.90
2019-05-06T07:03:12.264Z,99.90
2019-05-06T07:05:52.985Z,99.90
2019-05-06T07:08:34.057Z,99.90
2019-05-06T07:10:54.273Z,99.90
2019-05-06T07:13:24.391Z,99.90
2019-05-06T07:15:54.460Z,99.90
2019-05-06T07:18:24.205Z,99.90
2019-05-06T07:21:07.401Z,99.90
2019-05-06T07:23:37.842Z,99.90
2019-05-06T07:26:07.885Z,99.90
2019-05-06T07:28:37.454Z,99.90
2019-05-06T07:31:18.679Z,99.90
2019-05-06T07:33:38.738Z,99.90
2019-05-06T07:36:08.451Z,99.90
2019-05-06T07:38:39.773Z,99.90
2019-05-06T07:41:20.285Z,99.90
2019-05-06T07:43:57.355Z,99.90
2019-05-06T07:46:37.700Z,99.90
2019-05-06T07:49:07.442Z,99.90
2019-05-06T07:51:37.167Z,99.90
2019-05-06T07:54:06.885Z,99.90
2019-05-06T07:56:36.631Z,99.90
2019-05-06T07:59:09.090Z,99.90
2019-05-06T08:01:43.984Z,99.90
2019-05-06T08:04:14.022Z,99.90
2019-05-06T08:06:43.747Z,99.90
2019-05-06T08:09:13.656Z,99.90
2019-05-06T08:11:43.580Z,99.90
2019-05-06T08:14:13.363Z,99.90
2019-05-06T08:16:44.896Z,99.90
2019-05-06T08:19:14.609Z,99.90
2019-05-06T08:21:45.822Z,99.90
2019-05-06T08:24:15.541Z,99.90
2019-05-06T08:26:45.209Z,99.90
2019-05-06T08:29:16.021Z,99.90
2019-05-06T08:31:45.688Z,99.90
2019-05-06T08:34:15.743Z,99.90
2019-05-06T08:36:45.109Z,99.90
2019-05-06T08:39:15.016Z,99.90
2019-05-06T08:41:44.884Z,99.90
2019-05-06T08:44:14.666Z,99.90
2019-05-06T08:46:44.378Z,99.90
2019-05-06T08:49:14.104Z,99.90
2019-05-06T08:51:48.384Z,99.90
2019-05-06T08:54:22.975Z,99.90
2019-05-06T08:56:52.636Z,99.90
2019-05-06T08:59:24.032Z,99.90
2019-05-06T09:01:55.384Z,99.90
2019-05-06T09:04:24.991Z,99.90
2019-05-06T09:06:54.721Z,99.90
2019-05-06T09:09:24.313Z,99.90
2019-05-06T09:11:54.113Z,99.90
2019-05-06T09:14:23.980Z,99.90
2019-05-06T09:16:54.276Z,99.90
2019-05-06T09:19:24.163Z,99.90
2019-05-06T09:21:53.975Z,99.90
2019-05-06T09:24:23.688Z,99.90
2019-05-06T09:26:54.902Z,99.90
2019-05-06T09:29:32.708Z,99.90
2019-05-06T09:32:04.209Z,99.90
2019-05-06T09:34:38.577Z,99.90
2019-05-06T09:37:13.721Z,99.90
2019-05-06T09:39:45.306Z,99.90
2019-05-06T09:42:15.433Z,99.90
2019-05-06T09:44:50.234Z,99.90
2019-05-06T09:47:36.342Z,99.90
2019-05-06T09:50:12.758Z,99.90
2019-05-06T09:52:42.660Z,99.90
2019-05-06T09:55:12.964Z,99.90
2019-05-06T09:57:59.326Z,99.90
2019-05-06T10:00:32.998Z,99.90
2019-05-06T10:03:03.311Z,99.90
2019-05-06T10:05:33.222Z,99.90
2019-05-06T10:08:03.487Z,99.90
2019-05-06T10:10:33.315Z,99.90
2019-05-06T10:13:03.166Z,99.90
2019-05-06T10:15:32.889Z,99.90
2019-05-06T10:18:09.101Z,99.90
2019-05-06T10:20:42.845Z,99.90
2019-05-06T10:23:13.743Z,99.90
2019-05-06T10:25:44.902Z,99.90
2019-05-06T10:28:17.188Z,99.90
2019-05-06T10:30:46.856Z,99.90
2019-05-06T10:33:18.175Z,99.90
2019-05-06T10:35:48.129Z,99.90
2019-05-06T10:38:52.738Z,99.90
2019-05-06T10:41:26.668Z,99.90
2019-05-06T10:44:26.363Z,99.90
2019-05-06T10:46:56.038Z,99.90
2019-05-06T10:49:25.667Z,99.90
2019-05-06T10:51:57.514Z,99.70
2019-05-06T10:54:27.298Z,99.50
2019-05-06T10:57:04.375Z,99.60
2019-05-06T10:59:33.956Z,99.90
2019-05-06T11:02:23.520Z,99.40
2019-05-06T11:04:53.405Z,98.90
2019-05-06T11:07:31.424Z,99.20
2019-05-06T11:09:54.431Z,98.70
2019-05-06T11:12:24.165Z,99.40
2019-05-06T11:14:55.721Z,99.90
2019-05-06T11:17:25.386Z,99.90
2019-05-06T11:19:54.968Z,99.90
2019-05-06T11:22:24.909Z,99.90
2019-05-06T11:24:54.995Z,99.90
2019-05-06T11:27:31.844Z,99.70
2019-05-06T11:29:57.733Z,97.20
2019-05-06T11:32:33.026Z,96.10
2019-05-06T11:35:07.518Z,95.70
2019-05-06T11:37:51.033Z,95.70
2019-05-06T11:40:19.362Z,94.70
2019-05-06T11:42:49.323Z,95.20
2019-05-06T11:45:19.023Z,95.60
2019-05-06T11:47:48.605Z,96.10
2019-05-06T11:50:18.470Z,95.70
2019-05-06T11:52:48.219Z,95.70
2019-05-06T11:55:28.801Z,95.30
2019-05-06T11:57:49.718Z,95.00
2019-05-06T12:00:23.808Z,95.70
2019-05-06T12:02:53.372Z,96.20
2019-05-06T12:05:23.152Z,95.90
2019-05-06T12:08:01.754Z,95.90
2019-05-06T12:10:24.421Z,95.90
2019-05-06T12:12:54.190Z,96.00
2019-05-06T12:15:23.830Z,96.30
2019-05-06T12:17:53.638Z,96.10
2019-05-06T12:20:23.341Z,95.90
2019-05-06T12:22:53.009Z,94.50
2019-05-06T12:25:23.796Z,94.40
2019-05-06T12:27:53.647Z,95.10
2019-05-06T12:30:24.905Z,94.50
2019-05-06T12:33:03.340Z,94.70
2019-05-06T12:35:34.662Z,93.60
2019-05-06T12:38:23.860Z,93.60
2019-05-06T12:40:37.383Z,93.60
2019-05-06T12:43:24.768Z,92.90
2019-05-06T12:46:03.460Z,92.50
2019-05-06T12:48:34.909Z,92.30
2019-05-06T12:51:04.622Z,92.70
2019-05-06T12:53:34.400Z,92.20
2019-05-06T12:56:04.103Z,92.20
2019-05-06T12:58:33.857Z,92.70
2019-05-06T13:01:05.489Z,93.20
2019-05-06T13:03:35.372Z,93.00
2019-05-06T13:06:08.120Z,92.60
2019-05-06T13:08:53.951Z,92.80
2019-05-06T13:11:08.376Z,92.60
2019-05-06T13:13:52.631Z,92.50
2019-05-06T13:16:09.723Z,92.70
2019-05-06T13:18:39.408Z,92.90
2019-05-06T13:21:09.099Z,93.20
2019-05-06T13:23:55.385Z,93.80
2019-05-06T13:26:25.476Z,93.60
2019-05-06T13:28:56.761Z,94.40
2019-05-06T13:31:26.313Z,94.50
2019-05-06T13:33:57.784Z,94.20
2019-05-06T13:36:27.613Z,94.10
2019-05-06T13:39:10.697Z,94.20
2019-05-06T13:41:29.027Z,95.20
2019-05-06T13:44:02.486Z,95.90
2019-05-06T13:46:33.557Z,96.70
2019-05-06T13:49:03.327Z,97.80
2019-05-06T13:51:37.335Z,98.00
2019-05-06T13:54:07.076Z,98.30
2019-05-06T13:56:36.714Z,98.60
2019-05-06T13:59:06.544Z,98.30
2019-05-06T14:01:43.868Z,98.40
2019-05-06T14:04:15.058Z,98.90
2019-05-06T14:06:44.705Z,99.60
2019-05-06T14:09:28.357Z,99.70
2019-05-06T14:11:45.720Z,99.70
2019-05-06T14:14:15.264Z,99.70
2019-05-06T14:16:45.086Z,98.80
2019-05-06T14:19:14.649Z,98.50
2019-05-06T14:21:44.278Z,98.30
2019-05-06T14:24:17.307Z,98.90
2019-05-06T14:26:48.048Z,98.80
2019-05-06T14:29:24.996Z,99.00
2019-05-06T14:31:56.377Z,99.40
2019-05-06T14:34:26.090Z,99.10
2019-05-06T14:36:55.667Z,98.90
2019-05-06T14:39:46.287Z,99.10
2019-05-06T14:41:58.726Z,99.20
2019-05-06T14:44:28.420Z,99.30
2019-05-06T14:46:57.780Z,99.40
2019-05-06T14:49:27.753Z,99.70
2019-05-06T14:51:57.419Z,99.90
2019-05-06T14:54:27.179Z,99.90
2019-05-06T14:57:02.612Z,99.90
2019-05-06T14:59:33.005Z,99.90
2019-05-06T15:02:02.786Z,99.90
2019-05-06T15:04:32.899Z,99.90
2019-05-06T15:07:02.928Z,99.90
2019-05-06T15:09:33.257Z,99.90
2019-05-06T15:12:02.948Z,99.90
2019-05-06T15:14:33.229Z,99.90
2019-05-06T15:17:03.058Z,99.90
2019-05-06T15:19:33.129Z,99.90
2019-05-06T15:22:02.915Z,99.90
2019-05-06T15:24:32.612Z,99.90
2019-05-06T15:27:02.798Z,99.90
2019-05-06T15:29:32.812Z,99.90
2019-05-06T15:32:09.996Z,99.90
2019-05-06T15:34:53.815Z,99.90
2019-05-06T15:37:25.963Z,99.90
2019-05-06T15:39:55.730Z,99.90
2019-05-06T15:42:25.379Z,99.90
2019-05-06T15:44:55.328Z,99.90
2019-05-06T15:47:25.140Z,99.90
2019-05-06T15:49:54.819Z,99.90
2019-05-06T15:52:24.444Z,99.90
2019-05-06T15:54:54.053Z,99.90
2019-05-06T15:57:23.718Z,99.90
2019-05-06T15:59:53.556Z,99.90
2019-05-06T16:02:23.526Z,99.90
2019-05-06T16:04:53.287Z,99.90
2019-05-06T16:07:26.068Z,99.90
2019-05-06T16:09:55.398Z,99.90
2019-05-06T16:12:25.239Z,99.90
2019-05-06T16:14:54.905Z,99.90
2019-05-06T16:17:24.672Z,99.90
2019-05-06T16:19:54.487Z,99.90
2019-05-06T16:22:24.195Z,99.90
2019-05-06T16:24:55.446Z,99.90
2019-05-06T16:27:25.128Z,99.90
2019-05-06T16:29:54.729Z,99.90
2019-05-06T16:32:24.372Z,99.90
2019-05-06T16:34:54.088Z,99.90
2019-05-06T16:37:23.775Z,99.90
2019-05-06T16:39:54.652Z,99.90
2019-05-06T16:42:24.846Z,99.90
2019-05-06T16:44:54.743Z,99.90
2019-05-06T16:47:37.684Z,99.90
2019-05-06T16:50:13.210Z,99.90
2019-05-06T16:52:45.430Z,99.90
2019-05-06T16:55:17.451Z,99.90
2019-05-06T16:57:52.468Z,99.90
2019-05-06T17:00:27.407Z,99.90
2019-05-06T17:03:07.754Z,99.90
2019-05-06T17:05:42.460Z,99.90
2019-05-06T17:08:12.420Z,99.90
2019-05-06T17:10:43.295Z,99.90
2019-05-06T17:13:12.956Z,99.90
2019-05-06T17:15:43.029Z,99.90
2019-05-06T17:18:12.704Z,99.90
2019-05-06T17:20:42.805Z,99.90
2019-05-06T17:23:13.185Z,99.90
2019-05-06T17:25:43.213Z,99.90
2019-05-06T17:28:14.539Z,99.90
2019-05-06T17:30:46.122Z,99.90
2019-05-06T17:33:33.597Z,99.90
2019-05-06T17:36:04.315Z,99.90
2019-05-06T17:38:38.627Z,99.90
2019-05-06T17:41:08.494Z,99.90
2019-05-06T17:43:40.893Z,99.90
2019-05-06T17:46:12.571Z,99.90
2019-05-06T17:48:59.706Z,99.90
2019-05-06T17:51:39.528Z,99.90
2019-05-06T17:54:09.317Z,99.90
2019-05-06T17:56:39.350Z,99.90
2019-05-06T17:59:09.154Z,99.90
2019-05-06T18:01:46.228Z,99.90
2019-05-06T18:04:15.990Z,99.90
2019-05-06T18:06:45.936Z,99.90
2019-05-06T18:09:15.802Z,99.90
2019-05-06T18:11:57.866Z,99.90
2019-05-06T18:14:17.087Z,99.90
2019-05-06T18:16:46.925Z,99.90
2019-05-06T18:19:16.565Z,99.90
2019-05-06T18:21:46.660Z,99.90
2019-05-06T18:24:16.331Z,99.90
2019-05-06T18:26:46.204Z,99.90
2019-05-06T18:29:16.377Z,99.90
2019-05-06T18:31:46.508Z,99.90
2019-05-06T18:34:16.306Z,99.90
2019-05-06T18:36:47.951Z,99.90
2019-05-06T18:39:18.090Z,99.90
2019-05-06T18:41:48.353Z,99.90
2019-05-06T18:44:18.115Z,99.90
2019-05-06T18:46:48.404Z,99.90
2019-05-06T18:49:18.179Z,99.90
2019-05-06T18:51:51.255Z,99.90
2019-05-06T18:54:21.933Z,99.90
2019-05-06T18:56:52.175Z,99.90
2019-05-06T18:59:23.106Z,99.90
2019-05-06T19:01:53.841Z,99.90
2019-05-06T19:04:41.897Z,99.90
2019-05-06T19:07:16.226Z,99.90
2019-05-06T19:09:45.027Z,99.90
2019-05-06T19:12:28.991Z,99.90
2019-05-06T19:14:46.654Z,99.90
2019-05-06T19:17:16.486Z,99.90
2019-05-06T19:19:46.565Z,99.90
2019-05-06T19:22:16.346Z,99.90
2019-05-06T19:24:46.229Z,99.90
2019-05-06T19:27:16.150Z,99.90
2019-05-06T19:29:45.886Z,99.90
2019-05-06T19:32:15.704Z,99.90
2019-05-06T19:34:45.437Z,99.90
2019-05-06T19:37:15.346Z,99.90
2019-05-06T19:39:45.255Z,99.90
2019-05-06T19:42:15.214Z,99.90
2019-05-06T19:44:45.509Z,99.90
2019-05-06T19:47:15.790Z,99.90
2019-05-06T19:49:45.628Z,99.90
2019-05-06T19:52:15.488Z,99.90
2019-05-06T19:54:45.320Z,99.90
2019-05-06T19:57:15.903Z,99.90
2019-05-06T19:59:46.068Z,99.90
2019-05-06T20:02:16.093Z,99.90
2019-05-06T20:04:47.545Z,99.90
2019-05-06T20:07:18.956Z,99.90
2019-05-06T20:09:56.558Z,99.90
2019-05-06T20:12:32.743Z,99.90
2019-05-06T20:15:20.426Z,99.90
2019-05-06T20:17:52.069Z,99.90
2019-05-06T20:20:22.844Z,99.90
2019-05-06T20:22:53.234Z,99.90
2019-05-06T20:25:23.358Z,99.90
2019-05-06T20:27:53.430Z,99.90
2019-05-06T20:30:23.298Z,99.90
2019-05-06T20:32:54.145Z,99.90
2019-05-06T20:35:23.828Z,99.90
2019-05-06T20:37:54.135Z,99.90
2019-05-06T20:40:24.023Z,99.90
2019-05-06T20:42:54.196Z,99.90
2019-05-06T20:45:24.066Z,99.90
2019-05-06T20:47:54.165Z,99.90
2019-05-06T20:50:24.117Z,99.90
2019-05-06T20:52:54.278Z,99.90
2019-05-06T20:55:24.347Z,99.90
2019-05-06T20:57:54.416Z,99.90
2019-05-06T21:00:24.302Z,99.90
2019-05-06T21:02:54.577Z,99.90
2019-05-06T21:05:24.602Z,99.90
2019-05-06T21:07:57.142Z,99.90
2019-05-06T21:10:26.997Z,99.90
2019-05-06T21:12:57.043Z,99.90
2019-05-06T21:15:26.817Z,99.90
2019-05-06T21:17:56.480Z,99.90
2019-05-06T21:20:26.443Z,99.90
2019-05-06T21:22:56.662Z,99.90
2019-05-06T21:25:26.619Z,99.90
2019-05-06T21:27:56.823Z,99.90
2019-05-06T21:30:26.857Z,99.90
2019-05-06T21:32:57.263Z,99.90
2019-05-06T21:35:26.926Z,99.90
2019-05-06T21:37:56.877Z,99.90
2019-05-06T21:40:26.622Z,99.90
2019-05-06T21:42:56.705Z,99.90
2019-05-06T21:45:26.813Z,99.90
2019-05-06T21:47:57.019Z,99.90
2019-05-06T21:50:26.775Z,99.90
2019-05-06T21:52:57.005Z,99.90
2019-05-06T21:55:26.970Z,99.90
2019-05-06T21:57:56.759Z,99.90
2019-05-06T22:00:44.380Z,99.90
2019-05-06T22:03:14.340Z,99.90
2019-05-06T22:05:44.033Z,99.90
2019-05-06T22:08:14.079Z,99.90
2019-05-06T22:10:43.849Z,99.90
2019-05-06T22:13:14.666Z,99.90
2019-05-06T22:15:44.584Z,99.90
2019-05-06T22:18:14.502Z,99.90
2019-05-06T22:21:02.937Z,99.90
2019-05-06T22:23:50.083Z,99.90
2019-05-06T22:26:22.814Z,99.90
2019-05-06T22:28:52.484Z,99.90
2019-05-06T22:31:24.329Z,99.90
2019-05-06T22:33:54.543Z,99.90
2019-05-06T22:36:24.343Z,99.90
2019-05-06T22:38:54.444Z,99.90
2019-05-06T22:41:25.406Z,99.90
2019-05-06T22:43:55.413Z,99.90
2019-05-06T22:46:25.074Z,99.90
2019-05-06T22:48:54.861Z,99.90
2019-05-06T22:51:25.103Z,99.90
2019-05-06T22:53:54.632Z,99.90
2019-05-06T22:56:24.412Z,99.90
2019-05-06T22:58:54.093Z,99.90
2019-05-06T23:01:25.329Z,99.90
2019-05-06T23:03:55.437Z,99.90
2019-05-06T23:06:25.128Z,99.90
2019-05-06T23:08:54.728Z,99.90
2019-05-06T23:11:24.448Z,99.90
2019-05-06T23:13:54.145Z,99.90
2019-05-06T23:16:24.076Z,99.90
2019-05-06T23:18:53.687Z,99.90
2019-05-06T23:21:23.426Z,99.90
2019-05-06T23:23:54.704Z,99.90
2019-05-06T23:26:24.882Z,99.90
2019-05-06T23:28:54.576Z,99.90
2019-05-06T23:31:24.598Z,99.90
2019-05-06T23:33:54.385Z,99.90
2019-05-06T23:36:24.014Z,99.90
2019-05-06T23:39:49.516Z,99.90
2019-05-06T23:43:13.201Z,99.90
2019-05-06T23:46:37.193Z,99.90
2019-05-06T23:50:03.382Z,99.90
2019-05-06T23:53:26.342Z,99.90
2019-05-06T23:56:43.355Z,99.90
2019-05-06T23:59:18.123Z,99.90
